Australian Towns and Cities METAR Reports

YMHB - Hobart/Tasmania, Australia
Distance from station: NE 55km
Updated: 11/04/2021 20:30
Nearby showers, Mostly cloudy
Nearby showers, Mostly cloudy
 Wind from SW
Wind: SW 15 km/h
Temperature: 9°C
Wind Chill: 7°C
Dew Point: 4°C
Humidity: 71%
Barometer: 1014 hPa
Summary: Nearby Showers
Clouds: Mostly cloudy
Visibility: 10 km
Cloud details: Few Clouds 610 m
Partly cloudy 914 m
Mostly cloudy 1219 m
2021/04/11 10:30 YMHB 111030Z 22008KT 9999 VCSH FEW020 SCT030 BKN040 09/04 Q1014
YMLT - Launceston Airpo, Australia
Distance from station: N 179km
Updated: 11/04/2021 20:30
Overcast
Overcast
 Wind from SSE
Wind: SSE 20 km/h
Temperature: 9°C
Wind Chill: 6°C
Dew Point: 2°C
Humidity: 62%
Barometer: 1013 hPa
Clouds: Overcast
Visibility: 10 km
Cloud details: Overcast 1585 m
2021/04/11 10:30 YMLT 111030Z AUTO 16011KT 9999 // OVC052 09/02 Q1013 RF00.0/000.0
 
YMML - Melbourne Intl A, Australia
Distance from station: NNW 631km
Updated: 11/04/2021 20:30
Mostly cloudy
Mostly cloudy
 Wind from WSW
Wind: WSW 26 km/h
Temperature: 9°C
Wind Chill: 6°C
Dew Point: 8°C
Humidity: 94%
Barometer: 1020 hPa
Clouds: Mostly cloudy
Visibility: 10 km
Cloud details: Few Clouds 732 m
Mostly cloudy 1676 m
2021/04/11 10:30 YMML 111030Z 24014KT 9999 FEW024 BKN055 09/08 Q1020
YSCB - Canberra (civ/Mi, Australia
Distance from station: NNE 888km
Updated: 11/04/2021 20:30
Partly cloudy
Partly cloudy
 Wind from W
Wind: W 15 km/h
Temperature: 8°C
Wind Chill: 5°C
Dew Point: 2°C
Humidity: 66%
Barometer: 1016 hPa
Clouds: Partly cloudy
Visibility: 10 km
Cloud details: Partly cloudy 1615 m
2021/04/11 10:30 YSCB 111030Z AUTO 28008KT 9999 // SCT053 08/02 Q1016
 
YSSY - Sydney Intl Airp, Australia
Distance from station: NNE 1083km
Updated: 11/04/2021 20:30
Clear
Clear
 Wind from W
Wind: W 30 km/h
Temperature: 14°C
Dew Point: 1°C
Humidity: 41%
Barometer: 1014 hPa
Summary: Clear
Visibility: greater than 10 km
2021/04/11 10:30 YSSY 111030Z 27016KT CAVOK 14/01 Q1014
YPAD - Adelaide Intl Ar, Australia
Distance from station: NW 1166km
Updated: 11/04/2021 20:30
Clear
Clear
 Wind from SSE
Wind: SSE 13 km/h
Temperature: 15°C
Dew Point: 6°C
Humidity: 55%
Barometer: 1025 hPa
Summary: Clear
Visibility: greater than 10 km
2021/04/11 10:30 YPAD 111030Z 15007KT CAVOK 15/06 Q1025
 
YBBN - Brisbane Intl Ar, Australia
Distance from station: NNE 1836km
Updated: 11/04/2021 20:30
Clear
Clear
 Wind from WSW
Wind: WSW 20 km/h
Temperature: 21°C
Dew Point: 6°C
Humidity: 38%
Barometer: 1012 hPa
Summary: Clear
Visibility: greater than 10 km
2021/04/11 10:30 YBBN 111030Z 24011KT CAVOK 21/06 Q1012
YBMK - Mackay, Australia
Distance from station: N 2456km
Updated: 11/04/2021 20:00
Clear
Clear
 Wind from N
Wind: N 13 km/h
Temperature: 26°C
Dew Point: 24°C
Humidity: 89%
Barometer: 1009 hPa
Clouds: Clear
Visibility: 10 km
2021/04/11 10:00 YBMK 111000Z AUTO 35007KT 9999 // NCD 26/24 Q1009
 
YBAS - Alice Springs Ar, Australia
Distance from station: NNW 2462km
Updated: 11/04/2021 20:30
Clear
Clear
 Wind from SSE
Wind: SSE 11 km/h
Temperature: 16°C
Dew Point: 6°C
Humidity: 52%
Barometer: 1019 hPa
Clouds: Clear
Visibility: 10 km
2021/04/11 10:30 YBAS 111030Z AUTO 15006KT 9999 // NCD 16/06 Q1019 RF00.0/000.0
YBTL - Townsville(Civ/M, Australia
Distance from station: N 2655km
Updated: 11/04/2021 20:30
Partly cloudy
Partly cloudy
 Wind from N
Wind: N 9 km/h
Temperature: 27°C
Heat Index: 31°C
Dew Point: 25°C
Humidity: 89%
Barometer: 1010 hPa
Clouds: Partly cloudy
Visibility: 10 km
Cloud details: Partly cloudy 3658 m
2021/04/11 10:30 YBTL 111030Z AUTO 35005KT 9999 // SCT120 27/25 Q1010
 
YBCS - Cairns Airport, Australia
Distance from station: N 2923km
Updated: 11/04/2021 20:30
Partly cloudy
Partly cloudy
 Wind from W
Wind: W 4 km/h
Temperature: 27°C
Heat Index: 31°C
Dew Point: 25°C
Humidity: 89%
Barometer: 1010 hPa
Clouds: Partly cloudy
Visibility: 10 km
Cloud details: Partly cloudy 518 m
2021/04/11 10:30 YBCS 111030Z AUTO 28002KT 9999 // SCT017 27/25 Q1010
YPPH - Perth Intl/Belmo, Australia
Distance from station: WNW 2982km
Updated: 11/04/2021 20:34
Clear
Clear
 Wind from ENE
Wind: ENE 41 km/h, Gust: 59 km/h
Temperature: 21°C
Dew Point: 14°C
Humidity: 64%
Barometer: 1001 hPa
Summary: Clear
Visibility: greater than 10 km
2021/04/11 10:34 YPPH 111034Z 07022G32KT CAVOK 21/14 Q1001
 
YPDN - Darwin (civ/Mil), Australia
Distance from station: NNW 3749km
Updated: 11/04/2021 20:30
Few Clouds
Few Clouds
 Wind from NW
Wind: NW 6 km/h
Temperature: 29°C
Heat Index: 32°C
Dew Point: 23°C
Humidity: 70%
Barometer: 1009 hPa
Clouds: Few Clouds
Visibility: 10 km
Cloud details: Few Clouds 823 m
2021/04/11 10:30 YPDN 111030Z 32003KT 9999 FEW027 29/23 Q1009
YBWX - Barrow Island, Australia
Distance from station: NW 3832km
Updated: 11/04/2021 20:00

 Wind from NNW
Wind: NNW 22 km/h
2021/04/11 10:00 YBWX 111000Z AUTO 33012KT //// // ////// 29/// Q1008